CheckWX is a tool to help pilots better visualize weather data.  It is not intended as a substitute for an official pre-flight weather briefing.

21:04:52 UTC

EHSA METAR
Euro Platform
Euro Platform, The Netherlands
Current

40 mins ago

EHSA 232025Z AUTO 10011KT 9999 ///////// 09/05 Q1035 W05/H3
Observed
Feb-23 @ 20:25 UTC
Wind
  • 100° at 11 KTS
Visibility
10,000+ meters
Temperature
C / 48°F
Dewpoint
C / 41°F
Humidity
76%
Altimeter
30.56" Hg
Pressure
1034.91 hPa
Previous

1 hour ago

EHSA 231955Z AUTO 09012KT 9999 ///////// 08/06 Q1035 W05/H3
Observed
Feb-23 @ 19:55 UTC
Wind
  • 090° at 12 KTS
Visibility
10,000+ meters
Temperature
C / 46°F
Dewpoint
C / 43°F
Humidity
87%
Altimeter
30.56" Hg
Pressure
1034.91 hPa
Previous

2 hours ago

EHSA 231925Z AUTO 09012KT 9999 ///////// 09/06 Q1035 W05/H3
Observed
Feb-23 @ 19:25 UTC
Wind
  • 090° at 12 KTS
Visibility
10,000+ meters
Temperature
C / 48°F
Dewpoint
C / 43°F
Humidity
82%
Altimeter
30.56" Hg
Pressure
1034.91 hPa